sensor_id;sensor_type;location;lat;lon;timestamp;temperature;humidity
21353;DHT22;10834;52.268;6.770;2022-11-12T00:01:13;6.10;99.90
21353;DHT22;10834;52.268;6.770;2022-11-12T00:03:59;6.20;99.90
21353;DHT22;10834;52.268;6.770;2022-11-12T00:06:45;6.10;99.90
21353;DHT22;10834;52.268;6.770;2022-11-12T00:09:31;6.20;99.90
21353;DHT22;10834;52.268;6.770;2022-11-12T00:12:17;6.10;99.90
21353;DHT22;10834;52.268;6.770;2022-11-12T00:15:04;6.10;99.90
21353;DHT22;10834;52.268;6.770;2022-11-12T00:17:50;6.10;99.90
21353;DHT22;10834;52.268;6.770;2022-11-12T00:20:36;6.10;99.90
21353;DHT22;10834;52.268;6.770;2022-11-12T00:23:23;6.10;99.90
21353;DHT22;10834;52.268;6.770;2022-11-12T00:26:08;6.10;99.90
21353;DHT22;10834;52.268;6.770;2022-11-12T00:28:55;6.00;99.90
21353;DHT22;10834;52.268;6.770;2022-11-12T00:31:41;6.00;99.90
21353;DHT22;10834;52.268;6.770;2022-11-12T00:34:27;6.00;99.90
21353;DHT22;10834;52.268;6.770;2022-11-12T00:37:13;6.00;99.90
21353;DHT22;10834;52.268;6.770;2022-11-12T00:39:59;6.00;99.90
21353;DHT22;10834;52.268;6.770;2022-11-12T00:42:45;5.90;99.90
21353;DHT22;10834;52.268;6.770;2022-11-12T00:45:31;5.90;99.90
21353;DHT22;10834;52.268;6.770;2022-11-12T00:48:17;5.90;99.90
21353;DHT22;10834;52.268;6.770;2022-11-12T00:51:04;5.90;99.90
21353;DHT22;10834;52.268;6.770;2022-11-12T00:53:50;5.80;99.90
21353;DHT22;10834;52.268;6.770;2022-11-12T00:56:36;5.80;99.90
21353;DHT22;10834;52.268;6.770;2022-11-12T00:59:22;5.80;99.90
21353;DHT22;10834;52.268;6.770;2022-11-12T01:02:08;5.80;99.90
21353;DHT22;10834;52.268;6.770;2022-11-12T01:04:55;5.70;99.90
21353;DHT22;10834;52.268;6.770;2022-11-12T01:07:41;5.70;99.90
21353;DHT22;10834;52.268;6.770;2022-11-12T01:10:28;5.70;99.90
21353;DHT22;10834;52.268;6.770;2022-11-12T01:13:14;5.70;99.90
21353;DHT22;10834;52.268;6.770;2022-11-12T01:16:05;5.60;99.90
21353;DHT22;10834;52.268;6.770;2022-11-12T01:18:53;5.60;99.90
21353;DHT22;10834;52.268;6.770;2022-11-12T01:21:41;5.60;99.90
21353;DHT22;10834;52.268;6.770;2022-11-12T01:24:28;5.50;99.90
21353;DHT22;10834;52.268;6.770;2022-11-12T01:27:14;5.50;99.90
21353;DHT22;10834;52.268;6.770;2022-11-12T01:30:02;5.50;99.90
21353;DHT22;10834;52.268;6.770;2022-11-12T01:32:48;5.50;99.90
21353;DHT22;10834;52.268;6.770;2022-11-12T01:35:34;5.50;99.90
21353;DHT22;10834;52.268;6.770;2022-11-12T01:38:20;5.50;99.90
21353;DHT22;10834;52.268;6.770;2022-11-12T01:41:08;5.40;99.90
21353;DHT22;10834;52.268;6.770;2022-11-12T01:47:21;5.40;99.90
21353;DHT22;10834;52.268;6.770;2022-11-12T01:53:09;5.40;99.90
21353;DHT22;10834;52.268;6.770;2022-11-12T01:55:56;5.40;99.90
21353;DHT22;10834;52.268;6.770;2022-11-12T01:58:45;5.40;99.90
21353;DHT22;10834;52.268;6.770;2022-11-12T02:01:33;5.40;99.90
21353;DHT22;10834;52.268;6.770;2022-11-12T02:04:19;5.40;99.90
21353;DHT22;10834;52.268;6.770;2022-11-12T02:07:06;5.40;99.90
21353;DHT22;10834;52.268;6.770;2022-11-12T02:09:53;5.40;99.90
21353;DHT22;10834;52.268;6.770;2022-11-12T02:12:40;5.30;99.90
21353;DHT22;10834;52.268;6.770;2022-11-12T02:15:45;5.30;99.90
21353;DHT22;10834;52.268;6.770;2022-11-12T02:18:31;5.30;99.90
21353;DHT22;10834;52.268;6.770;2022-11-12T02:21:21;5.40;99.90
21353;DHT22;10834;52.268;6.770;2022-11-12T02:26:59;5.40;99.90
21353;DHT22;10834;52.268;6.770;2022-11-12T02:29:45;5.40;99.90
21353;DHT22;10834;52.268;6.770;2022-11-12T02:32:31;5.40;99.90
21353;DHT22;10834;52.268;6.770;2022-11-12T02:35:17;5.40;99.90
21353;DHT22;10834;52.268;6.770;2022-11-12T02:38:04;5.30;99.90
21353;DHT22;10834;52.268;6.770;2022-11-12T02:40:51;5.40;99.90
21353;DHT22;10834;52.268;6.770;2022-11-12T02:43:37;5.40;99.90
21353;DHT22;10834;52.268;6.770;2022-11-12T02:46:23;5.40;99.90
21353;DHT22;10834;52.268;6.770;2022-11-12T02:49:09;5.40;99.90
21353;DHT22;10834;52.268;6.770;2022-11-12T02:51:55;5.40;99.90
21353;DHT22;10834;52.268;6.770;2022-11-12T02:54:41;5.40;99.90
21353;DHT22;10834;52.268;6.770;2022-11-12T02:57:27;5.40;99.90
21353;DHT22;10834;52.268;6.770;2022-11-12T03:00:15;5.50;99.90
21353;DHT22;10834;52.268;6.770;2022-11-12T03:03:01;5.50;99.90
21353;DHT22;10834;52.268;6.770;2022-11-12T03:05:58;5.50;99.90
21353;DHT22;10834;52.268;6.770;2022-11-12T03:08:45;5.50;99.90
21353;DHT22;10834;52.268;6.770;2022-11-12T03:11:31;5.60;99.90
21353;DHT22;10834;52.268;6.770;2022-11-12T03:14:17;5.60;99.90
21353;DHT22;10834;52.268;6.770;2022-11-12T03:17:03;5.60;99.90
21353;DHT22;10834;52.268;6.770;2022-11-12T03:19:49;5.60;99.90
21353;DHT22;10834;52.268;6.770;2022-11-12T03:22:36;5.70;99.90
21353;DHT22;10834;52.268;6.770;2022-11-12T03:25:22;5.70;99.90
21353;DHT22;10834;52.268;6.770;2022-11-12T03:28:11;5.70;99.90
21353;DHT22;10834;52.268;6.770;2022-11-12T03:30:58;5.60;99.90
21353;DHT22;10834;52.268;6.770;2022-11-12T03:33:45;5.60;99.90
21353;DHT22;10834;52.268;6.770;2022-11-12T03:36:31;5.60;99.90
21353;DHT22;10834;52.268;6.770;2022-11-12T03:39:17;5.60;99.90
21353;DHT22;10834;52.268;6.770;2022-11-12T03:42:03;5.50;99.90
21353;DHT22;10834;52.268;6.770;2022-11-12T03:44:49;5.50;99.90
21353;DHT22;10834;52.268;6.770;2022-11-12T03:47:35;5.40;99.90
21353;DHT22;10834;52.268;6.770;2022-11-12T03:50:24;5.40;99.90
21353;DHT22;10834;52.268;6.770;2022-11-12T03:53:10;5.40;99.90
21353;DHT22;10834;52.268;6.770;2022-11-12T03:55:57;5.40;99.90
21353;DHT22;10834;52.268;6.770;2022-11-12T03:58:43;5.40;99.90
21353;DHT22;10834;52.268;6.770;2022-11-12T04:01:29;5.40;99.90
21353;DHT22;10834;52.268;6.770;2022-11-12T04:04:15;5.40;99.90
21353;DHT22;10834;52.268;6.770;2022-11-12T04:07:01;5.30;99.90
21353;DHT22;10834;52.268;6.770;2022-11-12T04:10:06;5.30;99.90
21353;DHT22;10834;52.268;6.770;2022-11-12T04:12:52;5.40;99.90
21353;DHT22;10834;52.268;6.770;2022-11-12T04:16:11;5.40;99.90
21353;DHT22;10834;52.268;6.770;2022-11-12T04:19:16;5.40;99.90
21353;DHT22;10834;52.268;6.770;2022-11-12T04:22:21;5.40;99.90
21353;DHT22;10834;52.268;6.770;2022-11-12T04:25:07;5.50;99.90
21353;DHT22;10834;52.268;6.770;2022-11-12T04:28:11;5.50;99.90
21353;DHT22;10834;52.268;6.770;2022-11-12T04:30:58;5.50;99.90
21353;DHT22;10834;52.268;6.770;2022-11-12T04:33:44;5.50;99.90
21353;DHT22;10834;52.268;6.770;2022-11-12T04:36:30;5.60;99.90
21353;DHT22;10834;52.268;6.770;2022-11-12T04:39:16;5.60;99.90
21353;DHT22;10834;52.268;6.770;2022-11-12T04:42:02;5.60;99.90
21353;DHT22;10834;52.268;6.770;2022-11-12T04:45:10;5.60;99.90
21353;DHT22;10834;52.268;6.770;2022-11-12T04:47:56;5.60;99.90
21353;DHT22;10834;52.268;6.770;2022-11-12T04:50:44;5.60;99.90
21353;DHT22;10834;52.268;6.770;2022-11-12T04:53:31;5.60;99.90
21353;DHT22;10834;52.268;6.770;2022-11-12T04:56:17;5.60;99.90
21353;DHT22;10834;52.268;6.770;2022-11-12T04:59:04;5.60;99.90
21353;DHT22;10834;52.268;6.770;2022-11-12T05:01:50;5.60;99.90
21353;DHT22;10834;52.268;6.770;2022-11-12T05:04:36;5.60;99.90
21353;DHT22;10834;52.268;6.770;2022-11-12T05:07:22;5.60;99.90
21353;DHT22;10834;52.268;6.770;2022-11-12T05:10:08;5.50;99.90
21353;DHT22;10834;52.268;6.770;2022-11-12T05:12:54;5.50;99.90
21353;DHT22;10834;52.268;6.770;2022-11-12T05:15:43;5.50;99.90
21353;DHT22;10834;52.268;6.770;2022-11-12T05:18:29;5.50;99.90
21353;DHT22;10834;52.268;6.770;2022-11-12T05:21:15;5.40;99.90
21353;DHT22;10834;52.268;6.770;2022-11-12T05:24:20;5.40;99.90
21353;DHT22;10834;52.268;6.770;2022-11-12T05:27:09;5.30;99.90
21353;DHT22;10834;52.268;6.770;2022-11-12T05:29:56;5.20;99.90
21353;DHT22;10834;52.268;6.770;2022-11-12T05:32:42;5.20;99.90
21353;DHT22;10834;52.268;6.770;2022-11-12T05:35:28;5.20;99.90
21353;DHT22;10834;52.268;6.770;2022-11-12T05:38:14;5.10;99.90
21353;DHT22;10834;52.268;6.770;2022-11-12T05:41:00;5.10;99.90
21353;DHT22;10834;52.268;6.770;2022-11-12T05:43:46;5.00;99.90
21353;DHT22;10834;52.268;6.770;2022-11-12T05:46:32;5.00;99.90
21353;DHT22;10834;52.268;6.770;2022-11-12T05:49:18;5.00;99.90
21353;DHT22;10834;52.268;6.770;2022-11-12T05:52:04;4.90;99.90
21353;DHT22;10834;52.268;6.770;2022-11-12T05:54:50;4.90;99.90
21353;DHT22;10834;52.268;6.770;2022-11-12T05:57:36;4.90;99.90
21353;DHT22;10834;52.268;6.770;2022-11-12T06:00:22;4.90;99.90
21353;DHT22;10834;52.268;6.770;2022-11-12T06:03:09;4.90;99.90
21353;DHT22;10834;52.268;6.770;2022-11-12T06:05:56;4.90;99.90
21353;DHT22;10834;52.268;6.770;2022-11-12T06:08:42;4.90;99.90
21353;DHT22;10834;52.268;6.770;2022-11-12T06:11:28;4.90;99.90
21353;DHT22;10834;52.268;6.770;2022-11-12T06:14:14;4.90;99.90
21353;DHT22;10834;52.268;6.770;2022-11-12T06:17:00;4.90;99.90
21353;DHT22;10834;52.268;6.770;2022-11-12T06:19:46;4.90;99.90
21353;DHT22;10834;52.268;6.770;2022-11-12T06:22:32;4.90;99.90
21353;DHT22;10834;52.268;6.770;2022-11-12T06:25:18;4.90;99.90
21353;DHT22;10834;52.268;6.770;2022-11-12T06:28:04;4.90;99.90
21353;DHT22;10834;52.268;6.770;2022-11-12T06:30:50;4.80;99.90
21353;DHT22;10834;52.268;6.770;2022-11-12T06:33:37;4.80;99.90
21353;DHT22;10834;52.268;6.770;2022-11-12T06:36:23;4.70;99.90
21353;DHT22;10834;52.268;6.770;2022-11-12T06:39:10;4.70;99.90
21353;DHT22;10834;52.268;6.770;2022-11-12T06:41:56;4.70;99.90
21353;DHT22;10834;52.268;6.770;2022-11-12T06:44:42;4.70;99.90
21353;DHT22;10834;52.268;6.770;2022-11-12T06:47:28;4.60;99.90
21353;DHT22;10834;52.268;6.770;2022-11-12T06:50:14;4.60;99.90
21353;DHT22;10834;52.268;6.770;2022-11-12T06:53:00;4.60;99.90
21353;DHT22;10834;52.268;6.770;2022-11-12T06:55:46;4.60;99.90
21353;DHT22;10834;52.268;6.770;2022-11-12T06:58:33;4.50;99.90
21353;DHT22;10834;52.268;6.770;2022-11-12T07:01:19;4.60;99.90
21353;DHT22;10834;52.268;6.770;2022-11-12T07:04:05;4.50;99.90
21353;DHT22;10834;52.268;6.770;2022-11-12T07:06:51;4.50;99.90
21353;DHT22;10834;52.268;6.770;2022-11-12T07:09:37;4.50;99.90
21353;DHT22;10834;52.268;6.770;2022-11-12T07:12:23;4.60;99.90
21353;DHT22;10834;52.268;6.770;2022-11-12T07:15:09;4.50;99.90
21353;DHT22;10834;52.268;6.770;2022-11-12T07:17:55;4.50;99.90
21353;DHT22;10834;52.268;6.770;2022-11-12T07:20:41;4.50;99.90
21353;DHT22;10834;52.268;6.770;2022-11-12T07:23:30;4.60;99.90
21353;DHT22;10834;52.268;6.770;2022-11-12T07:26:18;4.50;99.90
21353;DHT22;10834;52.268;6.770;2022-11-12T07:29:05;4.50;99.90
21353;DHT22;10834;52.268;6.770;2022-11-12T07:31:52;4.50;99.90
21353;DHT22;10834;52.268;6.770;2022-11-12T07:34:38;4.60;99.90
21353;DHT22;10834;52.268;6.770;2022-11-12T07:37:24;4.60;99.90
21353;DHT22;10834;52.268;6.770;2022-11-12T07:40:10;4.60;99.90
21353;DHT22;10834;52.268;6.770;2022-11-12T07:42:57;4.70;99.90
21353;DHT22;10834;52.268;6.770;2022-11-12T07:45:43;4.80;99.90
21353;DHT22;10834;52.268;6.770;2022-11-12T07:48:30;4.80;99.90
21353;DHT22;10834;52.268;6.770;2022-11-12T07:51:25;4.90;99.90
21353;DHT22;10834;52.268;6.770;2022-11-12T07:54:11;4.90;99.90
21353;DHT22;10834;52.268;6.770;2022-11-12T07:56:58;5.00;99.90
21353;DHT22;10834;52.268;6.770;2022-11-12T07:59:44;5.10;99.90
21353;DHT22;10834;52.268;6.770;2022-11-12T08:02:30;5.20;99.90
21353;DHT22;10834;52.268;6.770;2022-11-12T08:05:16;5.20;99.90
21353;DHT22;10834;52.268;6.770;2022-11-12T08:08:02;5.20;99.90
21353;DHT22;10834;52.268;6.770;2022-11-12T08:10:56;5.30;99.90
21353;DHT22;10834;52.268;6.770;2022-11-12T08:13:42;5.40;99.90
21353;DHT22;10834;52.268;6.770;2022-11-12T08:16:28;5.50;99.90
21353;DHT22;10834;52.268;6.770;2022-11-12T08:19:15;5.60;99.90
21353;DHT22;10834;52.268;6.770;2022-11-12T08:22:01;5.70;99.90
21353;DHT22;10834;52.268;6.770;2022-11-12T08:24:47;5.80;99.90
21353;DHT22;10834;52.268;6.770;2022-11-12T08:27:33;5.90;99.90
21353;DHT22;10834;52.268;6.770;2022-11-12T08:30:19;6.00;99.90
21353;DHT22;10834;52.268;6.770;2022-11-12T08:33:05;6.20;99.90
21353;DHT22;10834;52.268;6.770;2022-11-12T08:35:52;6.30;99.90
21353;DHT22;10834;52.268;6.770;2022-11-12T08:38:38;6.50;99.90
21353;DHT22;10834;52.268;6.770;2022-11-12T08:41:24;6.60;99.90
21353;DHT22;10834;52.268;6.770;2022-11-12T08:44:10;6.70;99.90
21353;DHT22;10834;52.268;6.770;2022-11-12T08:46:56;6.90;99.90
21353;DHT22;10834;52.268;6.770;2022-11-12T08:49:44;7.00;99.90
21353;DHT22;10834;52.268;6.770;2022-11-12T08:52:30;7.20;99.90
21353;DHT22;10834;52.268;6.770;2022-11-12T08:55:16;7.40;99.90
21353;DHT22;10834;52.268;6.770;2022-11-12T08:58:03;7.60;99.90
21353;DHT22;10834;52.268;6.770;2022-11-12T09:00:50;7.70;99.90
21353;DHT22;10834;52.268;6.770;2022-11-12T09:03:36;7.90;99.90
21353;DHT22;10834;52.268;6.770;2022-11-12T09:06:22;8.00;99.90
21353;DHT22;10834;52.268;6.770;2022-11-12T09:09:08;8.20;99.90
21353;DHT22;10834;52.268;6.770;2022-11-12T09:11:54;8.30;99.90
21353;DHT22;10834;52.268;6.770;2022-11-12T09:14:41;8.40;99.90
21353;DHT22;10834;52.268;6.770;2022-11-12T09:17:27;8.60;99.90
21353;DHT22;10834;52.268;6.770;2022-11-12T09:20:15;8.60;99.90
21353;DHT22;10834;52.268;6.770;2022-11-12T09:23:04;8.80;99.90
21353;DHT22;10834;52.268;6.770;2022-11-12T09:25:51;9.30;99.90
21353;DHT22;10834;52.268;6.770;2022-11-12T09:28:37;9.50;99.90
21353;DHT22;10834;52.268;6.770;2022-11-12T09:31:23;9.40;99.90
21353;DHT22;10834;52.268;6.770;2022-11-12T09:34:10;9.40;99.90
21353;DHT22;10834;52.268;6.770;2022-11-12T09:36:56;9.40;99.90
21353;DHT22;10834;52.268;6.770;2022-11-12T09:39:42;9.50;99.90
21353;DHT22;10834;52.268;6.770;2022-11-12T09:42:29;9.60;99.90
21353;DHT22;10834;52.268;6.770;2022-11-12T09:45:25;9.70;99.90
21353;DHT22;10834;52.268;6.770;2022-11-12T09:48:17;9.80;99.90
21353;DHT22;10834;52.268;6.770;2022-11-12T09:51:27;9.80;99.90
21353;DHT22;10834;52.268;6.770;2022-11-12T09:54:27;10.00;99.90
21353;DHT22;10834;52.268;6.770;2022-11-12T09:57:13;10.50;99.90
21353;DHT22;10834;52.268;6.770;2022-11-12T09:59:59;10.70;99.90
21353;DHT22;10834;52.268;6.770;2022-11-12T10:03:07;10.70;99.90
21353;DHT22;10834;52.268;6.770;2022-11-12T10:06:12;10.70;99.90
21353;DHT22;10834;52.268;6.770;2022-11-12T10:09:08;10.70;99.90
21353;DHT22;10834;52.268;6.770;2022-11-12T10:12:13;10.70;99.90
21353;DHT22;10834;52.268;6.770;2022-11-12T10:21:57;10.90;99.90
21353;DHT22;10834;52.268;6.770;2022-11-12T10:24:47;10.90;99.90
21353;DHT22;10834;52.268;6.770;2022-11-12T10:27:39;11.00;99.90
21353;DHT22;10834;52.268;6.770;2022-11-12T10:30:25;11.10;99.90
21353;DHT22;10834;52.268;6.770;2022-11-12T10:33:14;11.20;99.90
21353;DHT22;10834;52.268;6.770;2022-11-12T10:36:19;11.40;99.90
21353;DHT22;10834;52.268;6.770;2022-11-12T10:39:06;11.40;99.90
21353;DHT22;10834;52.268;6.770;2022-11-12T10:42:08;11.40;99.90
21353;DHT22;10834;52.268;6.770;2022-11-12T10:45:17;11.50;99.90
21353;DHT22;10834;52.268;6.770;2022-11-12T10:48:03;11.60;99.90
21353;DHT22;10834;52.268;6.770;2022-11-12T10:50:49;11.60;99.90
21353;DHT22;10834;52.268;6.770;2022-11-12T10:53:37;11.80;99.90
21353;DHT22;10834;52.268;6.770;2022-11-12T10:56:29;11.90;99.90
21353;DHT22;10834;52.268;6.770;2022-11-12T10:59:18;11.90;99.90
21353;DHT22;10834;52.268;6.770;2022-11-12T11:02:15;12.00;99.90
21353;DHT22;10834;52.268;6.770;2022-11-12T11:05:37;12.10;99.90
21353;DHT22;10834;52.268;6.770;2022-11-12T11:08:40;12.10;99.90
21353;DHT22;10834;52.268;6.770;2022-11-12T11:11:28;12.10;99.90
21353;DHT22;10834;52.268;6.770;2022-11-12T11:14:25;12.10;99.90
21353;DHT22;10834;52.268;6.770;2022-11-12T11:17:16;12.10;99.90
21353;DHT22;10834;52.268;6.770;2022-11-12T11:23:21;12.30;99.90
21353;DHT22;10834;52.268;6.770;2022-11-12T11:32:32;12.70;99.90
21353;DHT22;10834;52.268;6.770;2022-11-12T11:47:25;13.10;99.90
21353;DHT22;10834;52.268;6.770;2022-11-12T11:50:22;13.20;99.90
21353;DHT22;10834;52.268;6.770;2022-11-12T11:56:13;13.30;99.90
21353;DHT22;10834;52.268;6.770;2022-11-12T12:06:06;13.30;99.90
21353;DHT22;10834;52.268;6.770;2022-11-12T12:12:40;13.50;99.90
21353;DHT22;10834;52.268;6.770;2022-11-12T12:15:44;13.60;99.90
21353;DHT22;10834;52.268;6.770;2022-11-12T12:21:42;13.70;99.90
21353;DHT22;10834;52.268;6.770;2022-11-12T12:24:32;13.70;99.90
21353;DHT22;10834;52.268;6.770;2022-11-12T12:27:26;13.70;99.90
21353;DHT22;10834;52.268;6.770;2022-11-12T12:30:20;13.80;99.90
21353;DHT22;10834;52.268;6.770;2022-11-12T12:33:38;13.80;99.90
21353;DHT22;10834;52.268;6.770;2022-11-12T12:36:35;13.80;99.90
21353;DHT22;10834;52.268;6.770;2022-11-12T12:39:26;13.90;99.90
21353;DHT22;10834;52.268;6.770;2022-11-12T12:42:21;13.80;99.90
21353;DHT22;10834;52.268;6.770;2022-11-12T12:45:43;13.90;99.90
21353;DHT22;10834;52.268;6.770;2022-11-12T12:48:33;13.90;99.90
21353;DHT22;10834;52.268;6.770;2022-11-12T12:51:20;14.00;99.90
21353;DHT22;10834;52.268;6.770;2022-11-12T12:57:38;14.10;99.90
21353;DHT22;10834;52.268;6.770;2022-11-12T13:00:41;14.10;99.90
21353;DHT22;10834;52.268;6.770;2022-11-12T13:03:45;14.00;99.90
21353;DHT22;10834;52.268;6.770;2022-11-12T13:06:38;14.00;99.90
21353;DHT22;10834;52.268;6.770;2022-11-12T13:09:26;13.90;99.90
21353;DHT22;10834;52.268;6.770;2022-11-12T13:12:15;13.90;99.90
21353;DHT22;10834;52.268;6.770;2022-11-12T13:15:14;13.90;99.90
21353;DHT22;10834;52.268;6.770;2022-11-12T13:18:00;13.80;99.90
21353;DHT22;10834;52.268;6.770;2022-11-12T13:23:57;13.60;99.90
21353;DHT22;10834;52.268;6.770;2022-11-12T13:26:55;13.60;99.90
21353;DHT22;10834;52.268;6.770;2022-11-12T13:29:42;13.40;99.90
21353;DHT22;10834;52.268;6.770;2022-11-12T13:38:12;13.10;99.90
21353;DHT22;10834;52.268;6.770;2022-11-12T13:43:56;12.90;99.90
21353;DHT22;10834;52.268;6.770;2022-11-12T13:46:43;12.80;99.90
21353;DHT22;10834;52.268;6.770;2022-11-12T13:49:30;12.80;99.90
21353;DHT22;10834;52.268;6.770;2022-11-12T13:52:17;12.80;99.90
21353;DHT22;10834;52.268;6.770;2022-11-12T13:55:06;12.80;99.90
21353;DHT22;10834;52.268;6.770;2022-11-12T13:57:57;12.70;99.90
21353;DHT22;10834;52.268;6.770;2022-11-12T14:00:54;12.70;99.90
21353;DHT22;10834;52.268;6.770;2022-11-12T14:03:43;12.60;99.90
21353;DHT22;10834;52.268;6.770;2022-11-12T14:06:49;12.50;99.90
21353;DHT22;10834;52.268;6.770;2022-11-12T14:10:01;12.50;99.90
21353;DHT22;10834;52.268;6.770;2022-11-12T14:13:11;12.40;99.90
21353;DHT22;10834;52.268;6.770;2022-11-12T14:16:27;12.30;99.90
21353;DHT22;10834;52.268;6.770;2022-11-12T14:22:20;12.20;99.90
21353;DHT22;10834;52.268;6.770;2022-11-12T14:28:03;12.00;99.90
21353;DHT22;10834;52.268;6.770;2022-11-12T14:30:50;12.00;99.90
21353;DHT22;10834;52.268;6.770;2022-11-12T14:33:36;11.90;99.90
21353;DHT22;10834;52.268;6.770;2022-11-12T14:36:22;11.90;99.90
21353;DHT22;10834;52.268;6.770;2022-11-12T14:39:09;11.90;99.90
21353;DHT22;10834;52.268;6.770;2022-11-12T14:41:57;11.80;99.90
21353;DHT22;10834;52.268;6.770;2022-11-12T14:44:44;11.80;99.90
21353;DHT22;10834;52.268;6.770;2022-11-12T14:47:30;11.80;99.90
21353;DHT22;10834;52.268;6.770;2022-11-12T14:50:20;11.70;99.90
21353;DHT22;10834;52.268;6.770;2022-11-12T14:53:18;11.70;99.90
21353;DHT22;10834;52.268;6.770;2022-11-12T14:56:11;11.60;99.90
21353;DHT22;10834;52.268;6.770;2022-11-12T14:58:58;11.60;99.90
21353;DHT22;10834;52.268;6.770;2022-11-12T15:02:05;11.60;99.90
21353;DHT22;10834;52.268;6.770;2022-11-12T15:04:57;11.50;99.90
21353;DHT22;10834;52.268;6.770;2022-11-12T15:08:02;11.50;99.90
21353;DHT22;10834;52.268;6.770;2022-11-12T15:10:49;11.40;99.90
21353;DHT22;10834;52.268;6.770;2022-11-12T15:13:40;11.30;99.90
21353;DHT22;10834;52.268;6.770;2022-11-12T15:19:27;11.20;99.90
21353;DHT22;10834;52.268;6.770;2022-11-12T15:22:21;11.10;99.90
21353;DHT22;10834;52.268;6.770;2022-11-12T15:25:28;11.00;99.90
21353;DHT22;10834;52.268;6.770;2022-11-12T15:28:22;10.90;99.90
21353;DHT22;10834;52.268;6.770;2022-11-12T15:31:18;10.80;99.90
21353;DHT22;10834;52.268;6.770;2022-11-12T15:40:11;10.50;99.90
21353;DHT22;10834;52.268;6.770;2022-11-12T15:43:01;10.50;99.90
21353;DHT22;10834;52.268;6.770;2022-11-12T15:45:52;10.40;99.90
21353;DHT22;10834;52.268;6.770;2022-11-12T15:48:38;10.30;99.90
21353;DHT22;10834;52.268;6.770;2022-11-12T15:51:24;10.20;99.90
21353;DHT22;10834;52.268;6.770;2022-11-12T15:54:10;10.00;99.90
21353;DHT22;10834;52.268;6.770;2022-11-12T15:56:56;10.00;99.90
21353;DHT22;10834;52.268;6.770;2022-11-12T15:59:42;9.90;99.90
21353;DHT22;10834;52.268;6.770;2022-11-12T16:02:30;9.80;99.90
21353;DHT22;10834;52.268;6.770;2022-11-12T16:05:17;9.70;99.90
21353;DHT22;10834;52.268;6.770;2022-11-12T16:08:04;9.70;99.90
21353;DHT22;10834;52.268;6.770;2022-11-12T16:10:50;9.60;99.90
21353;DHT22;10834;52.268;6.770;2022-11-12T16:13:36;9.50;99.90
21353;DHT22;10834;52.268;6.770;2022-11-12T16:16:22;9.40;99.90
21353;DHT22;10834;52.268;6.770;2022-11-12T16:19:11;9.40;99.90
21353;DHT22;10834;52.268;6.770;2022-11-12T16:22:02;9.30;99.90
21353;DHT22;10834;52.268;6.770;2022-11-12T16:24:48;9.20;99.90
21353;DHT22;10834;52.268;6.770;2022-11-12T16:27:37;9.20;99.90
21353;DHT22;10834;52.268;6.770;2022-11-12T16:30:26;9.10;99.90
21353;DHT22;10834;52.268;6.770;2022-11-12T16:33:13;9.10;99.90
21353;DHT22;10834;52.268;6.770;2022-11-12T16:35:59;9.00;99.90
21353;DHT22;10834;52.268;6.770;2022-11-12T16:38:45;9.00;99.90
21353;DHT22;10834;52.268;6.770;2022-11-12T16:41:31;9.00;99.90
21353;DHT22;10834;52.268;6.770;2022-11-12T16:44:17;8.90;99.90
21353;DHT22;10834;52.268;6.770;2022-11-12T16:47:04;8.90;99.90
21353;DHT22;10834;52.268;6.770;2022-11-12T16:49:50;8.80;99.90
21353;DHT22;10834;52.268;6.770;2022-11-12T16:52:36;8.80;99.90
21353;DHT22;10834;52.268;6.770;2022-11-12T16:55:22;8.80;99.90
21353;DHT22;10834;52.268;6.770;2022-11-12T16:58:14;8.80;99.90
21353;DHT22;10834;52.268;6.770;2022-11-12T17:01:00;8.80;99.90
21353;DHT22;10834;52.268;6.770;2022-11-12T17:03:46;8.80;99.90
21353;DHT22;10834;52.268;6.770;2022-11-12T17:06:34;8.80;99.90
21353;DHT22;10834;52.268;6.770;2022-11-12T17:09:21;8.80;99.90
21353;DHT22;10834;52.268;6.770;2022-11-12T17:12:08;8.80;99.90
21353;DHT22;10834;52.268;6.770;2022-11-12T17:14:54;8.80;99.90
21353;DHT22;10834;52.268;6.770;2022-11-12T17:17:40;8.80;99.90
21353;DHT22;10834;52.268;6.770;2022-11-12T17:20:26;8.70;99.90
21353;DHT22;10834;52.268;6.770;2022-11-12T17:23:12;8.70;99.90
21353;DHT22;10834;52.268;6.770;2022-11-12T17:25:59;8.70;99.90
21353;DHT22;10834;52.268;6.770;2022-11-12T17:28:46;8.70;99.90
21353;DHT22;10834;52.268;6.770;2022-11-12T17:31:33;8.60;99.90
21353;DHT22;10834;52.268;6.770;2022-11-12T17:34:20;8.60;99.90
21353;DHT22;10834;52.268;6.770;2022-11-12T17:37:06;8.60;99.90
21353;DHT22;10834;52.268;6.770;2022-11-12T17:39:52;8.50;99.90
21353;DHT22;10834;52.268;6.770;2022-11-12T17:42:38;8.50;99.90
21353;DHT22;10834;52.268;6.770;2022-11-12T17:45:24;8.50;99.90
21353;DHT22;10834;52.268;6.770;2022-11-12T17:48:10;8.50;99.90
21353;DHT22;10834;52.268;6.770;2022-11-12T17:53:50;8.40;99.90
21353;DHT22;10834;52.268;6.770;2022-11-12T17:56:36;8.40;99.90
21353;DHT22;10834;52.268;6.770;2022-11-12T17:59:22;8.40;99.90
21353;DHT22;10834;52.268;6.770;2022-11-12T18:02:10;8.30;99.90
21353;DHT22;10834;52.268;6.770;2022-11-12T18:04:56;8.30;99.90
21353;DHT22;10834;52.268;6.770;2022-11-12T18:07:42;8.30;99.90
21353;DHT22;10834;52.268;6.770;2022-11-12T18:10:28;8.20;99.90
21353;DHT22;10834;52.268;6.770;2022-11-12T18:13:15;8.20;99.90
21353;DHT22;10834;52.268;6.770;2022-11-12T18:16:01;8.20;99.90
21353;DHT22;10834;52.268;6.770;2022-11-12T18:18:48;8.10;99.90
21353;DHT22;10834;52.268;6.770;2022-11-12T18:21:34;8.10;99.90
21353;DHT22;10834;52.268;6.770;2022-11-12T18:24:20;8.00;99.90
21353;DHT22;10834;52.268;6.770;2022-11-12T18:27:06;8.00;99.90
21353;DHT22;10834;52.268;6.770;2022-11-12T18:29:52;8.00;99.90
21353;DHT22;10834;52.268;6.770;2022-11-12T18:32:38;8.00;99.90
21353;DHT22;10834;52.268;6.770;2022-11-12T18:35:26;7.90;99.90
21353;DHT22;10834;52.268;6.770;2022-11-12T18:38:12;7.90;99.90
21353;DHT22;10834;52.268;6.770;2022-11-12T18:41:18;7.90;99.90
21353;DHT22;10834;52.268;6.770;2022-11-12T18:44:06;7.90;99.90
21353;DHT22;10834;52.268;6.770;2022-11-12T18:46:52;7.80;99.90
21353;DHT22;10834;52.268;6.770;2022-11-12T18:49:38;7.80;99.90
21353;DHT22;10834;52.268;6.770;2022-11-12T18:52:24;7.80;99.90
21353;DHT22;10834;52.268;6.770;2022-11-12T18:55:10;7.80;99.90
21353;DHT22;10834;52.268;6.770;2022-11-12T18:57:56;7.80;99.90
21353;DHT22;10834;52.268;6.770;2022-11-12T19:00:42;7.80;99.90
21353;DHT22;10834;52.268;6.770;2022-11-12T19:03:28;7.80;99.90
21353;DHT22;10834;52.268;6.770;2022-11-12T19:06:14;7.80;99.90
21353;DHT22;10834;52.268;6.770;2022-11-12T19:09:01;7.80;99.90
21353;DHT22;10834;52.268;6.770;2022-11-12T19:11:48;7.80;99.90
21353;DHT22;10834;52.268;6.770;2022-11-12T19:14:34;7.80;99.90
21353;DHT22;10834;52.268;6.770;2022-11-12T19:17:20;7.80;99.90
21353;DHT22;10834;52.268;6.770;2022-11-12T19:20:07;7.80;99.90
21353;DHT22;10834;52.268;6.770;2022-11-12T19:22:53;7.80;99.90
21353;DHT22;10834;52.268;6.770;2022-11-12T19:25:39;7.80;99.90
21353;DHT22;10834;52.268;6.770;2022-11-12T19:28:25;7.80;99.90